Time;durP1;ratioP1;P1;durP2;ratioP2;P2;SDS_P1;SDS_P2;PMS_P1;PMS_P2;Temp;Humidity;BMP_temperature;BMP_pressure;BME280_temperature;BME280_humidity;BME280_pressure;Samples;Min_cycle;Max_cycle;Signal;HPM_P1;HPM_P2
2023/08/11 06:21:25;;;;;;;8.50;6.50;;;;;;;18.94;100.00;101332.73;104237;1283;599465;-71
2023/08/11 06:23:54;;;;;;;12.80;7.20;;;;;;;19.08;100.00;101334.67;106219;1260;63021;-78
2023/08/11 06:26:24;;;;;;;10.30;6.50;;;;;;;19.17;100.00;101332.55;106996;1258;61107;-78
2023/08/11 06:28:52;;;;;;;8.00;6.20;;;;;;;19.30;100.00;101334.83;106877;1250;72207;-78
2023/08/11 06:31:21;;;;;;;11.40;6.80;;;;;;;19.42;100.00;101334.15;106881;1252;61867;-68
2023/08/11 06:33:50;;;;;;;9.80;6.00;;;;;;;19.52;100.00;101336.09;106712;1251;60618;-69
2023/08/11 06:36:20;;;;;;;9.10;6.60;;;;;;;19.58;100.00;101335.52;106670;1248;72049;-68
2023/08/11 06:38:51;;;;;;;11.20;6.50;;;;;;;19.72;100.00;101331.20;106934;1253;62691;-68
2023/08/11 06:41:20;;;;;;;11.20;7.20;;;;;;;19.89;100.00;101336.36;106947;1248;61538;-67
2023/08/11 06:43:49;;;;;;;10.50;6.60;;;;;;;20.02;100.00;101331.08;106969;1258;72802;-71
2023/08/11 06:46:18;;;;;;;10.10;6.80;;;;;;;20.09;100.00;101335.27;106876;1247;71842;-69
2023/08/11 06:48:47;;;;;;;10.00;6.10;;;;;;;20.19;100.00;101331.43;106962;1256;70484;-66
2023/08/11 06:51:16;;;;;;;11.10;6.50;;;;;;;20.26;100.00;101328.25;106899;1248;74468;-69
2023/08/11 06:53:45;;;;;;;8.60;6.00;;;;;;;20.29;100.00;101325.48;107016;1255;63459;-70
2023/08/11 06:56:14;;;;;;;9.50;6.30;;;;;;;20.32;100.00;101321.98;106816;1248;61403;-69
2023/08/11 06:58:43;;;;;;;9.30;5.80;;;;;;;20.42;100.00;101325.14;106626;1246;73416;-71
2023/08/11 07:01:14;;;;;;;8.70;5.70;;;;;;;20.48;100.00;101327.70;106843;1248;73037;-70
2023/08/11 07:03:45;;;;;;;8.70;5.70;;;;;;;20.58;100.00;101324.63;106851;1251;59528;-70
2023/08/11 07:06:14;;;;;;;11.00;5.90;;;;;;;20.69;100.00;101314.43;106959;1247;64063;-71
2023/08/11 07:08:43;;;;;;;10.90;5.90;;;;;;;20.76;100.00;101314.41;106948;1245;62250;-70
2023/08/11 07:11:11;;;;;;;9.00;5.20;;;;;;;20.82;100.00;101322.59;106950;1247;60627;-70
2023/08/11 07:13:41;;;;;;;7.50;5.50;;;;;;;20.82;100.00;101318.15;107608;1245;72723;-69
2023/08/11 07:16:10;;;;;;;10.80;5.60;;;;;;;20.93;100.00;101314.84;106997;1248;61316;-69
2023/08/11 07:18:39;;;;;;;10.00;5.50;;;;;;;21.02;100.00;101313.13;107030;1248;59571;-69
2023/08/11 07:21:08;;;;;;;7.60;5.50;;;;;;;21.08;100.00;101321.16;106988;1248;62711;-71
2023/08/11 07:23:37;;;;;;;6.70;5.30;;;;;;;21.24;100.00;101319.26;107051;1245;62333;-71
2023/08/11 07:26:06;;;;;;;9.20;5.20;;;;;;;21.36;100.00;101315.41;107057;1248;62283;-71
2023/08/11 07:28:35;;;;;;;9.70;6.10;;;;;;;21.46;100.00;101316.56;106934;1247;73034;-70
2023/08/11 07:31:04;;;;;;;7.10;5.60;;;;;;;21.51;100.00;101310.74;107027;1247;73047;-72
2023/08/11 07:33:33;;;;;;;8.10;5.20;;;;;;;21.57;100.00;101310.96;106893;1249;70324;-71
2023/08/11 07:36:02;;;;;;;13.00;5.60;;;;;;;21.72;100.00;101311.61;107001;1259;71988;-69
2023/08/11 07:38:31;;;;;;;8.70;5.50;;;;;;;21.80;100.00;101310.72;107000;1247;58895;-69
2023/08/11 07:41:00;;;;;;;8.70;5.30;;;;;;;21.88;100.00;101309.41;106912;1249;57881;-70
2023/08/11 07:43:29;;;;;;;11.90;5.20;;;;;;;21.94;100.00;101302.75;107000;1258;61658;-70
2023/08/11 07:45:58;;;;;;;7.20;5.10;;;;;;;21.99;100.00;101300.11;106946;1249;61255;-70
2023/08/11 07:48:27;;;;;;;6.90;4.90;;;;;;;22.07;100.00;101302.52;107101;1247;59917;-71
2023/08/11 07:50:56;;;;;;;9.40;5.20;;;;;;;22.07;100.00;101302.58;106962;1255;63506;-72
2023/08/11 07:53:25;;;;;;;6.70;4.50;;;;;;;22.08;100.00;101296.76;106848;1249;59195;-71
2023/08/11 07:55:54;;;;;;;12.40;5.20;;;;;;;22.02;100.00;101294.95;107039;1247;59367;-73
2023/08/11 07:58:23;;;;;;;6.90;4.70;;;;;;;22.08;100.00;101295.86;106828;1259;61721;-73
2023/08/11 08:00:52;;;;;;;7.30;5.00;;;;;;;22.11;100.00;101291.14;107010;1258;61412;-70
2023/08/11 08:03:21;;;;;;;9.10;5.20;;;;;;;22.19;100.00;101291.14;107090;1248;60674;-70
2023/08/11 08:05:51;;;;;;;7.00;4.60;;;;;;;22.28;100.00;101291.73;107037;1254;73293;-70
2023/08/11 08:08:19;;;;;;;9.00;5.00;;;;;;;22.40;100.00;101296.94;107131;1247;61311;-70
2023/08/11 08:10:48;;;;;;;9.10;5.00;;;;;;;22.45;100.00;101287.10;106970;1248;61318;-70
2023/08/11 08:13:17;;;;;;;6.80;4.40;;;;;;;22.57;100.00;101281.34;106790;1258;64111;-71
2023/08/11 08:15:47;;;;;;;6.80;4.80;;;;;;;22.62;100.00;101283.59;107024;1247;72083;-71
2023/08/11 08:18:15;;;;;;;7.10;4.50;;;;;;;22.75;100.00;101279.73;107055;1255;70176;-70
2023/08/11 08:20:44;;;;;;;8.30;4.80;;;;;;;22.86;100.00;101273.48;107023;1248;74311;-70
2023/08/11 08:23:14;;;;;;;9.20;4.90;;;;;;;22.91;100.00;101269.59;106973;1247;60793;-69
2023/08/11 08:25:43;;;;;;;10.20;5.10;;;;;;;23.00;100.00;101271.13;107015;1247;60319;-70
2023/08/11 08:28:12;;;;;;;15.20;5.00;;;;;;;23.10;100.00;101262.78;107590;1248;63797;-69
2023/08/11 08:30:42;;;;;;;10.20;4.90;;;;;;;23.13;98.83;101266.33;107544;1241;71308;-69
2023/08/11 08:33:10;;;;;;;8.00;4.60;;;;;;;23.28;99.73;101265.43;107550;1242;70173;-70
2023/08/11 08:35:40;;;;;;;8.90;4.90;;;;;;;23.41;99.81;101260.31;107472;1243;74056;-70
2023/08/11 08:38:08;;;;;;;8.60;4.50;;;;;;;23.49;97.98;101258.30;107499;1240;61297;-70
2023/08/11 08:40:38;;;;;;;6.00;4.50;;;;;;;23.55;98.09;101258.17;107603;1241;59131;-70
2023/08/11 08:43:08;;;;;;;8.40;4.30;;;;;;;23.60;96.07;101255.31;107462;1252;70177;-70
2023/08/11 08:45:39;;;;;;;6.90;4.60;;;;;;;23.56;93.69;101250.08;107458;1242;61925;-69
2023/08/11 08:48:18;;;;;;;8.10;4.40;;;;;;;23.66;92.22;101247.61;107478;1241;68278;-71
2023/08/11 08:50:48;;;;;;;10.40;4.30;;;;;;;23.71;90.43;101247.66;107539;1241;74136;-70
2023/08/11 08:53:17;;;;;;;6.50;4.30;;;;;;;23.83;89.58;101248.55;107496;1242;61171;-70
2023/08/11 08:55:47;;;;;;;6.60;4.10;;;;;;;23.91;86.70;101245.52;107494;1247;61798;-69
2023/08/11 08:58:16;;;;;;;7.40;4.30;;;;;;;23.89;87.56;101247.33;107503;1239;71758;-70
2023/08/11 09:00:46;;;;;;;4.90;4.20;;;;;;;24.05;86.29;101236.52;107577;1242;72123;-70
2023/08/11 09:03:15;;;;;;;6.80;4.60;;;;;;;24.09;85.67;101239.23;107481;1242;61532;-69
2023/08/11 09:05:45;;;;;;;8.40;3.90;;;;;;;24.21;83.47;101238.08;107471;1242;73175;-69
2023/08/11 09:08:14;;;;;;;7.50;3.80;;;;;;;24.30;80.61;101235.89;107483;1242;61336;-69
2023/08/11 09:10:42;;;;;;;7.80;4.20;;;;;;;24.31;81.17;101231.86;107489;1249;60824;-70
2023/08/11 09:13:14;;;;;;;6.30;3.80;;;;;;;24.44;81.40;101230.84;107567;1241;73059;-70
2023/08/11 09:15:45;;;;;;;5.30;3.20;;;;;;;24.58;77.92;101232.48;107568;1241;70269;-72
2023/08/11 09:18:16;;;;;;;5.40;3.30;;;;;;;24.66;76.16;101230.41;107534;1241;71019;-69
2023/08/11 09:20:48;;;;;;;4.60;3.10;;;;;;;24.68;74.99;101233.88;107404;1251;64996;-70
2023/08/11 09:23:18;;;;;;;7.10;3.50;;;;;;;24.79;74.55;101230.24;107612;1248;60545;-70
2023/08/11 09:25:47;;;;;;;3.80;3.10;;;;;;;24.89;73.88;101234.48;107542;1241;58928;-71
2023/08/11 09:28:16;;;;;;;8.60;3.60;;;;;;;25.01;74.49;101225.27;107469;1244;61760;-70
2023/08/11 09:30:48;;;;;;;4.40;3.40;;;;;;;25.17;72.75;101240.79;107312;1243;71938;-71
2023/08/11 09:33:17;;;;;;;8.90;3.90;;;;;;;25.17;72.08;101235.28;107458;1239;61240;-68
2023/08/11 09:35:47;;;;;;;6.60;4.10;;;;;;;25.12;73.55;101226.44;107428;1241;73337;-69
2023/08/11 09:38:16;;;;;;;9.00;3.80;;;;;;;25.25;72.40;101227.45;107353;1252;57586;-69
2023/08/11 09:40:50;;;;;;;6.90;3.60;;;;;;;25.33;71.91;101228.70;107354;1240;59036;-71
2023/08/11 09:43:19;;;;;;;4.70;2.80;;;;;;;25.43;69.28;101228.27;107447;1241;72465;-69
2023/08/11 09:45:48;;;;;;;6.90;3.20;;;;;;;25.49;68.96;101229.58;107554;1241;61481;-70
2023/08/11 09:48:17;;;;;;;6.50;3.40;;;;;;;25.64;69.54;101228.52;107597;1242;59350;-69
2023/08/11 09:50:47;;;;;;;7.80;4.20;;;;;;;25.73;67.53;101236.11;107682;1242;62453;-68
2023/08/11 09:53:18;;;;;;;9.50;3.70;;;;;;;25.68;68.57;101239.85;107438;1248;59001;-70
2023/08/11 09:55:49;;;;;;;6.70;3.20;;;;;;;25.73;68.12;101243.23;107371;1241;60996;-71
2023/08/11 09:58:19;;;;;;;8.30;3.30;;;;;;;25.70;66.63;101236.05;107280;1248;73165;-71
2023/08/11 10:00:49;;;;;;;5.70;3.80;;;;;;;25.81;68.04;101227.68;107416;1241;63870;-71
2023/08/11 10:03:28;;;;;;;4.50;3.00;;;;;;;25.90;67.08;101235.15;107596;1242;70749;-71
2023/08/11 10:06:01;;;;;;;6.30;3.20;;;;;;;26.04;66.48;101233.06;107441;1249;64191;-71
2023/08/11 10:08:31;;;;;;;7.00;3.30;;;;;;;26.10;66.76;101234.93;107538;1241;59506;-71
2023/08/11 10:11:02;;;;;;;5.50;3.30;;;;;;;26.13;66.79;101219.05;107486;1242;59067;-71
2023/08/11 10:13:32;;;;;;;5.60;3.50;;;;;;;26.17;64.71;101226.92;107310;1241;64838;-69
2023/08/11 10:16:02;;;;;;;7.80;3.50;;;;;;;26.10;64.84;101229.59;107360;1242;71719;-67
2023/08/11 10:18:31;;;;;;;4.90;3.30;;;;;;;26.19;65.44;101232.66;107297;1242;60273;-68
2023/08/11 10:21:02;;;;;;;5.90;3.40;;;;;;;26.18;64.91;101225.32;107330;1249;63522;-67
2023/08/11 10:23:33;;;;;;;6.10;3.40;;;;;;;26.27;65.26;101227.63;107358;1241;58891;-68
2023/08/11 10:26:02;;;;;;;5.80;3.70;;;;;;;26.23;64.93;101215.19;107356;1241;60585;-68
2023/08/11 10:28:32;;;;;;;6.80;3.50;;;;;;;26.29;64.62;101219.80;107411;1240;72224;-68
2023/08/11 10:31:05;;;;;;;4.40;3.40;;;;;;;26.59;64.24;101223.15;107336;1242;63169;-69
2023/08/11 10:33:34;;;;;;;7.40;3.70;;;;;;;26.75;63.23;101220.08;107276;1239;61478;-69
2023/08/11 10:36:04;;;;;;;7.80;3.20;;;;;;;26.70;63.25;101231.77;107398;1252;73542;-69
2023/08/11 10:38:33;;;;;;;5.60;3.30;;;;;;;26.56;62.22;101225.48;107418;1242;59002;-70
2023/08/11 10:41:10;;;;;;;4.80;3.40;;;;;;;26.71;62.60;101232.27;107437;1242;59920;-69
2023/08/11 10:43:42;;;;;;;8.00;3.60;;;;;;;26.94;62.97;101228.79;107296;1239;72507;-68
2023/08/11 10:46:24;;;;;;;6.70;3.80;;;;;;;27.18;62.12;101223.45;107499;1245;63128;-70
2023/08/11 10:48:58;;;;;;;;;;;;;;;26.97;62.77;101237.12;107406;1245;60701;-68
2023/08/11 10:51:31;;;;;;;4.90;3.50;;;;;;;26.81;63.31;101235.63;107491;1241;65524;-71
2023/08/11 10:54:17;;;;;;;5.80;3.70;;;;;;;26.57;64.73;101232.01;107409;1242;59007;-69
2023/08/11 10:56:46;;;;;;;4.80;3.50;;;;;;;26.82;64.79;101225.77;107627;1241;58877;-69
2023/08/11 10:59:24;;;;;;;5.60;3.20;;;;;;;27.03;62.67;101225.09;107548;1248;64773;-69
2023/08/11 11:01:54;;;;;;;4.30;3.10;;;;;;;27.45;60.22;101221.71;107334;1252;61449;-70
2023/08/11 11:04:29;;;;;;;7.30;3.70;;;;;;;27.81;59.67;101220.65;107405;1241;59733;-69
2023/08/11 11:07:00;;;;;;;5.90;3.40;;;;;;;27.79;59.72;101213.42;107374;1249;63226;-69
2023/08/11 11:09:29;;;;;;;6.90;3.90;;;;;;;27.67;60.20;101214.66;107413;1242;59137;-68
2023/08/11 11:11:58;;;;;;;10.50;3.60;;;;;;;27.29;61.13;101210.80;107386;1241;61092;-70
2023/08/11 11:14:28;;;;;;;6.00;3.40;;;;;;;26.93;59.93;101222.48;107455;1241;74483;-69
2023/08/11 11:17:03;;;;;;;4.90;3.20;;;;;;;26.91;60.61;101221.62;107474;1241;71250;-69
2023/08/11 11:19:33;;;;;;;4.10;3.30;;;;;;;27.01;60.72;101213.42;107580;1241;71161;-65
2023/08/11 11:22:02;;;;;;;5.40;3.40;;;;;;;27.07;60.56;101209.95;107640;1241;64568;-65
2023/08/11 11:24:32;;;;;;;4.70;3.30;;;;;;;27.50;60.26;101209.20;107579;1242;59243;-68
2023/08/11 11:27:00;;;;;;;6.50;3.00;;;;;;;27.76;60.27;101196.75;107515;1242;60235;-67
2023/08/11 11:29:31;;;;;;;4.60;3.50;;;;;;;27.90;60.66;101197.23;107502;1249;72504;-65
2023/08/11 11:32:06;;;;;;;4.80;3.80;;;;;;;28.40;59.05;101196.16;107545;1242;61950;-65
2023/08/11 11:34:37;;;;;;;6.60;3.90;;;;;;;28.33;58.77;101198.39;107537;1247;68432;-65
2023/08/11 11:37:07;;;;;;;4.70;3.40;;;;;;;27.93;59.87;101200.41;107440;1252;63489;-67
2023/08/11 11:39:36;;;;;;;5.80;3.70;;;;;;;28.08;60.51;101214.21;107550;1244;57348;-66
2023/08/11 11:42:08;;;;;;;5.40;4.10;;;;;;;28.23;60.74;101213.77;107608;1241;58899;-64
2023/08/11 11:44:42;;;;;;;5.90;3.60;;;;;;;28.49;58.78;101204.33;107515;1243;73482;-65
2023/08/11 11:47:12;;;;;;;4.50;3.50;;;;;;;28.68;57.35;101198.63;107541;1252;62769;-65
2023/08/11 11:49:41;;;;;;;6.00;4.30;;;;;;;28.71;57.94;101196.35;107514;1241;70090;-66
2023/08/11 11:52:10;;;;;;;5.80;4.10;;;;;;;28.42;59.15;101192.05;107415;1252;63384;-65
2023/08/11 11:54:39;;;;;;;8.50;4.50;;;;;;;28.16;60.18;101194.39;107533;1252;59061;-65
2023/08/11 11:57:08;;;;;;;6.40;4.10;;;;;;;27.62;62.62;101189.89;107449;1242;58987;-67
2023/08/11 11:59:42;;;;;;;6.70;4.30;;;;;;;27.43;63.57;101196.55;107510;1242;62502;-67
2023/08/11 12:02:12;;;;;;;7.40;4.80;;;;;;;27.61;62.78;101190.98;108251;1239;70358;-67
2023/08/11 12:04:44;;;;;;;6.50;4.50;;;;;;;27.66;63.37;101186.09;107478;1242;60682;-66
2023/08/11 12:07:36;;;;;;;7.80;4.50;;;;;;;28.16;61.92;101185.50;107571;1242;63119;-65
2023/08/11 12:10:06;;;;;;;6.20;4.70;;;;;;;28.15;60.41;101181.42;107605;1241;59073;-66
2023/08/11 12:12:35;;;;;;;8.60;5.10;;;;;;;28.08;60.54;101177.70;107432;1245;58942;-65
2023/08/11 12:15:08;;;;;;;7.40;5.40;;;;;;;28.39;59.84;101180.92;107274;1252;62668;-64
2023/08/11 12:17:37;;;;;;;8.00;5.10;;;;;;;28.64;58.58;101174.04;107371;1242;61422;-65
2023/08/11 12:20:12;;;;;;;5.70;4.70;;;;;;;28.85;57.68;101164.45;107484;1251;60142;-67
2023/08/11 12:22:42;;;;;;;8.00;5.40;;;;;;;29.21;57.38;101166.64;107405;1240;64684;-68
2023/08/11 12:25:11;;;;;;;6.90;5.30;;;;;;;29.79;55.47;101167.06;107329;1242;59870;-65
2023/08/11 12:27:41;;;;;;;9.00;5.20;;;;;;;30.07;54.98;101161.64;107413;1241;59007;-67
2023/08/11 12:30:11;;;;;;;6.90;5.40;;;;;;;30.39;53.44;101158.83;107446;1252;62600;-67
2023/08/11 12:32:40;;;;;;;7.10;5.20;;;;;;;30.45;52.09;101157.30;107460;1242;61877;-67
2023/08/11 12:35:11;;;;;;;7.80;4.90;;;;;;;30.15;52.41;101169.85;107269;1244;62106;-66
2023/08/11 12:37:40;;;;;;;5.30;4.40;;;;;;;29.84;52.97;101152.06;107430;1252;63002;-67
2023/08/11 12:40:10;;;;;;;7.70;5.00;;;;;;;30.29;51.68;101147.89;107517;1242;59139;-68
2023/08/11 12:42:39;;;;;;;5.70;4.80;;;;;;;30.43;51.35;101153.14;107478;1241;59037;-69
2023/08/11 12:45:11;;;;;;;6.00;4.90;;;;;;;30.46;51.05;101156.95;107352;1240;74107;-68
2023/08/11 12:47:40;;;;;;;13.00;5.30;;;;;;;30.60;50.75;101148.56;107423;1239;72909;-67
2023/08/11 12:50:09;;;;;;;7.90;5.00;;;;;;;30.75;50.45;101142.86;107325;1242;70256;-67
2023/08/11 12:52:39;;;;;;;7.40;4.60;;;;;;;30.88;49.79;101150.38;107398;1243;62945;-66
2023/08/11 12:55:09;;;;;;;9.60;4.60;;;;;;;31.00;49.48;101150.55;107384;1248;59045;-68
2023/08/11 12:57:38;;;;;;;6.30;4.90;;;;;;;31.36;48.25;101153.12;107447;1239;58963;-68
2023/08/11 13:00:10;;;;;;;7.90;4.70;;;;;;;30.95;48.55;101150.04;107469;1242;63387;-68
2023/08/11 13:02:39;;;;;;;9.40;4.40;;;;;;;30.97;49.33;101145.37;107418;1241;71661;-67
2023/08/11 13:05:08;;;;;;;9.10;5.10;;;;;;;31.44;47.28;101152.02;107489;1242;69206;-68
2023/08/11 13:07:37;;;;;;;8.80;4.80;;;;;;;31.13;47.59;101156.12;107521;1248;62832;-69
2023/08/11 13:10:09;;;;;;;7.40;4.80;;;;;;;30.70;48.45;101157.55;107653;1241;59525;-67
2023/08/11 13:12:40;;;;;;;9.90;5.70;;;;;;;30.20;49.65;101156.68;107550;1242;57563;-67
2023/08/11 13:15:10;;;;;;;6.80;4.90;;;;;;;30.41;50.49;101149.77;107380;1242;66640;-70
2023/08/11 13:17:39;;;;;;;9.10;4.40;;;;;;;31.02;48.63;101158.30;107527;1241;62815;-67
2023/08/11 13:20:09;;;;;;;7.10;4.60;;;;;;;31.24;47.63;101154.26;107513;1248;59398;-68
2023/08/11 13:22:40;;;;;;;7.10;4.80;;;;;;;30.82;48.63;101155.42;107481;1242;64137;-71
2023/08/11 13:25:11;;;;;;;8.50;5.30;;;;;;;31.24;47.87;101156.55;107397;1241;61207;-69
2023/08/11 13:27:42;;;;;;;11.30;5.40;;;;;;;31.32;47.77;101154.35;107396;1239;61455;-70
2023/08/11 13:30:13;;;;;;;8.50;5.00;;;;;;;31.24;47.48;101156.87;107271;1252;73549;-69
2023/08/11 13:32:42;;;;;;;7.00;4.50;;;;;;;30.76;47.93;101166.31;107409;1242;72214;-69
2023/08/11 13:35:12;;;;;;;5.70;4.50;;;;;;;30.11;48.67;101176.67;107457;1242;60155;-70
2023/08/11 13:37:41;;;;;;;10.10;4.80;;;;;;;30.02;48.80;101166.62;107129;1244;63051;-71
2023/08/11 13:40:11;;;;;;;9.70;4.70;;;;;;;30.03;48.76;101170.34;107244;1242;60989;-71
2023/08/11 13:42:40;;;;;;;6.70;4.70;;;;;;;30.32;48.75;101162.16;107276;1242;59062;-69
2023/08/11 13:45:11;;;;;;;8.50;4.90;;;;;;;30.71;48.52;101167.20;107434;1241;64510;-68
2023/08/11 13:47:40;;;;;;;7.10;4.10;;;;;;;30.89;47.56;101160.96;107389;1241;61355;-68
2023/08/11 13:50:09;;;;;;;6.70;4.10;;;;;;;31.40;46.14;101167.40;107438;1252;59517;-69
2023/08/11 13:52:38;;;;;;;6.90;4.50;;;;;;;31.67;44.64;101181.27;107432;1252;73800;-69
2023/08/11 13:55:08;;;;;;;7.80;4.00;;;;;;;32.10;43.88;101175.31;107363;1241;58962;-68
2023/08/11 13:57:38;;;;;;;9.50;4.40;;;;;;;31.91;43.71;101175.20;107394;1242;59111;-69
2023/08/11 14:00:11;;;;;;;5.70;4.10;;;;;;;31.81;43.35;101178.79;107440;1248;62767;-69
2023/08/11 14:02:41;;;;;;;6.00;4.30;;;;;;;31.80;43.48;101181.73;107444;1241;71423;-69
2023/08/11 14:05:10;;;;;;;12.10;4.30;;;;;;;31.94;43.17;101181.90;107417;1241;61341;-69
2023/08/11 14:07:39;;;;;;;5.20;4.00;;;;;;;32.17;42.68;101176.89;107540;1241;63581;-67
2023/08/11 14:10:09;;;;;;;4.90;4.10;;;;;;;32.11;41.80;101175.42;107512;1241;59030;-69
2023/08/11 14:12:38;;;;;;;5.70;3.90;;;;;;;31.90;41.91;101176.07;107500;1241;58702;-69
2023/08/11 14:15:08;;;;;;;6.80;3.90;;;;;;;32.22;40.99;101171.20;107424;1248;63282;-68
2023/08/11 14:17:37;;;;;;;8.50;3.80;;;;;;;32.32;41.68;101180.65;107569;1252;62621;-70
2023/08/11 14:20:07;;;;;;;4.70;3.70;;;;;;;32.41;41.76;101177.59;107558;1240;60022;-72
2023/08/11 14:22:36;;;;;;;6.40;3.70;;;;;;;32.40;41.35;101173.63;107612;1242;62939;-71
2023/08/11 14:25:05;;;;;;;4.30;3.50;;;;;;;32.40;41.46;101181.25;107620;1241;60420;-72
2023/08/11 14:27:34;;;;;;;3.80;3.30;;;;;;;32.72;39.31;101181.10;107578;1241;59226;-71
2023/08/11 14:30:04;;;;;;;5.10;3.50;;;;;;;32.33;39.50;101181.08;109969;1240;62946;-71
2023/08/11 14:32:33;;;;;;;6.10;3.30;;;;;;;31.69;41.27;101185.77;110006;1241;72083;-71
2023/08/11 14:35:03;;;;;;;4.30;3.30;;;;;;;31.11;42.61;101182.30;109873;1242;59364;-71
2023/08/11 14:37:32;;;;;;;6.10;3.60;;;;;;;30.68;44.13;101192.44;109978;1241;73819;-70
2023/08/11 14:40:01;;;;;;;4.90;3.70;;;;;;;30.13;46.09;101187.72;109875;1239;61491;-72
2023/08/11 14:42:29;;;;;;;6.80;4.00;;;;;;;29.68;47.40;101172.06;109807;1242;57578;-70
2023/08/11 14:44:58;;;;;;;6.20;4.00;;;;;;;29.51;48.26;101182.50;109851;1242;64352;-70
2023/08/11 14:47:28;;;;;;;3.90;3.40;;;;;;;30.28;46.55;101175.13;109976;1241;62209;-71
2023/08/11 14:49:57;;;;;;;4.80;3.50;;;;;;;30.90;44.74;101177.52;109980;1239;69877;-70
2023/08/11 14:52:26;;;;;;;5.20;3.50;;;;;;;31.18;43.76;101170.73;109828;1241;74313;-71
2023/08/11 14:54:54;;;;;;;5.70;3.10;;;;;;;30.87;44.22;101179.85;109973;1239;59992;-71
2023/08/11 14:57:23;;;;;;;4.10;3.30;;;;;;;30.88;44.33;101179.85;109961;1241;57664;-70
2023/08/11 14:59:52;;;;;;;5.20;3.80;;;;;;;30.94;44.86;101177.06;110000;1241;61974;-70
2023/08/11 15:02:21;;;;;;;7.60;3.90;;;;;;;31.44;43.88;101169.94;109876;1241;70818;-71
2023/08/11 15:04:50;;;;;;;5.50;3.30;;;;;;;31.48;43.75;101174.27;109995;1239;70099;-70
2023/08/11 15:07:18;;;;;;;6.40;3.70;;;;;;;31.72;43.53;101179.16;109951;1240;74110;-70
2023/08/11 15:09:47;;;;;;;6.80;3.70;;;;;;;31.42;44.15;101181.16;109832;1242;57759;-71
2023/08/11 15:12:17;;;;;;;5.90;3.50;;;;;;;31.24;44.76;101179.33;109900;1240;60053;-70
2023/08/11 15:14:46;;;;;;;6.10;3.40;;;;;;;31.28;44.60;101189.22;109741;1242;62697;-70
2023/08/11 15:17:15;;;;;;;6.10;3.40;;;;;;;31.44;44.06;101185.85;109964;1239;61615;-70
2023/08/11 15:19:44;;;;;;;5.30;3.50;;;;;;;31.34;43.90;101182.89;109868;1241;59439;-71
2023/08/11 15:22:12;;;;;;;5.40;3.50;;;;;;;31.13;44.78;101184.95;109876;1240;74227;-71
2023/08/11 15:24:41;;;;;;;9.10;4.00;;;;;;;31.24;45.08;101183.57;109894;1238;57711;-71
2023/08/11 15:27:10;;;;;;;5.30;3.70;;;;;;;31.48;44.95;101189.68;109925;1239;57760;-71
2023/08/11 15:29:39;;;;;;;4.30;3.30;;;;;;;31.61;44.93;101191.78;109925;1239;72663;-69
2023/08/11 15:32:08;;;;;;;5.70;4.00;;;;;;;31.49;45.68;101194.39;109957;1239;61811;-70
2023/08/11 15:34:39;;;;;;;6.90;4.10;;;;;;;31.18;46.85;101195.86;109758;1239;70169;-69
2023/08/11 15:37:07;;;;;;;5.50;3.90;;;;;;;30.37;48.89;101201.90;109910;1240;75052;-71
2023/08/11 15:39:36;;;;;;;7.50;4.70;;;;;;;29.60;50.79;101201.91;109999;1241;57176;-71
2023/08/11 15:42:05;;;;;;;8.00;4.80;;;;;;;28.75;53.06;101197.31;110016;1239;57663;-70
2023/08/11 15:44:35;;;;;;;7.60;4.40;;;;;;;27.80;57.20;101199.94;109920;1240;72487;-71
2023/08/11 15:47:04;;;;;;;6.60;4.20;;;;;;;27.50;57.98;101202.02;109858;1240;70723;-71
2023/08/11 15:49:33;;;;;;;5.40;4.10;;;;;;;27.01;59.38;101196.33;109819;1242;69396;-70
2023/08/11 15:52:02;;;;;;;7.60;4.70;;;;;;;26.83;59.71;101198.96;109844;1240;73670;-70
2023/08/11 15:54:31;;;;;;;6.10;4.20;;;;;;;26.54;61.42;101206.13;109811;1240;61482;-71
2023/08/11 15:57:00;;;;;;;7.30;4.80;;;;;;;26.24;62.96;101211.14;109760;1240;57669;-70
2023/08/11 15:59:28;;;;;;;7.80;4.60;;;;;;;26.07;64.25;101211.38;109950;1239;74671;-70
2023/08/11 16:01:57;;;;;;;7.80;4.40;;;;;;;25.92;65.67;101212.05;109968;1241;61063;-70
2023/08/11 16:04:38;;;;;;;7.20;4.70;;;;;;;25.71;67.33;101225.18;109862;1240;70183;-70
2023/08/11 16:07:07;;;;;;;9.70;4.90;;;;;;;25.72;68.02;101229.48;109718;1244;63557;-71
2023/08/11 16:09:37;;;;;;;10.80;5.00;;;;;;;26.32;66.58;101228.95;109824;1240;57142;-70
2023/08/11 16:12:06;;;;;;;7.80;4.50;;;;;;;26.75;65.34;101231.88;109754;1244;57161;-69
2023/08/11 16:14:35;;;;;;;8.20;4.60;;;;;;;26.91;65.15;101239.58;110010;1239;72628;-70
2023/08/11 16:17:04;;;;;;;6.50;4.60;;;;;;;27.27;64.21;101235.02;109909;1239;72466;-71
2023/08/11 16:19:34;;;;;;;5.90;4.00;;;;;;;27.52;63.01;101236.63;110008;1239;70912;-70
2023/08/11 16:22:03;;;;;;;10.10;4.10;;;;;;;27.99;60.59;101241.26;110013;1240;62548;-71
2023/08/11 16:24:32;;;;;;;7.60;4.30;;;;;;;28.17;58.92;101238.64;109900;1240;57197;-70
2023/08/11 16:27:01;;;;;;;6.00;3.90;;;;;;;28.15;57.97;101236.33;109999;1240;57086;-70
2023/08/11 16:29:30;;;;;;;6.30;4.10;;;;;;;27.99;57.14;101239.06;109856;1240;63928;-70
2023/08/11 16:31:59;;;;;;;6.40;4.50;;;;;;;27.82;57.69;101238.98;109974;1239;73164;-70
2023/08/11 16:34:27;;;;;;;5.20;3.20;;;;;;;28.02;55.86;101248.70;109818;1241;61293;-69
2023/08/11 16:36:56;;;;;;;4.80;3.30;;;;;;;27.90;52.65;101249.73;109817;1242;62448;-70
2023/08/11 16:39:25;;;;;;;4.40;3.10;;;;;;;27.68;51.57;101251.30;109842;1242;58125;-71
2023/08/11 16:41:54;;;;;;;5.60;3.60;;;;;;;27.14;52.75;101250.06;109850;1241;57613;-71
2023/08/11 16:44:23;;;;;;;4.90;3.50;;;;;;;26.53;55.18;101249.05;109754;1241;63464;-70
2023/08/11 16:46:53;;;;;;;4.80;3.30;;;;;;;26.20;57.04;101252.29;109795;1240;72132;-70
2023/08/11 16:49:22;;;;;;;3.90;3.30;;;;;;;25.97;59.02;101256.09;109842;1241;60242;-70
2023/08/11 16:51:51;;;;;;;5.80;3.90;;;;;;;25.42;62.63;101266.02;109737;1241;73880;-69
2023/08/11 16:54:20;;;;;;;7.00;3.80;;;;;;;25.17;63.98;101266.46;109605;1241;61586;-71
2023/08/11 16:56:48;;;;;;;5.20;4.20;;;;;;;25.09;65.34;101276.63;109649;1239;60518;-70
2023/08/11 16:59:17;;;;;;;5.50;4.50;;;;;;;24.77;67.84;101279.83;109821;1239;63203;-70
2023/08/11 17:01:46;;;;;;;6.30;4.70;;;;;;;24.49;69.58;101289.48;109789;1240;61519;-69
2023/08/11 17:04:15;;;;;;;7.30;4.50;;;;;;;24.26;71.15;101286.64;109619;1241;69616;-70
2023/08/11 17:06:43;;;;;;;11.60;5.50;;;;;;;24.09;72.56;101287.80;109707;1241;74308;-70
2023/08/11 17:09:12;;;;;;;7.40;4.70;;;;;;;23.88;74.54;101289.05;109620;1240;57729;-68
2023/08/11 17:11:41;;;;;;;6.90;4.40;;;;;;;23.62;77.18;101295.73;109834;1239;57632;-69
2023/08/11 17:14:10;;;;;;;6.60;4.50;;;;;;;23.51;78.03;101299.48;109616;1242;73477;-71
2023/08/11 17:16:38;;;;;;;8.10;4.70;;;;;;;23.50;77.55;101300.67;109656;1242;71807;-71
2023/08/11 17:19:07;;;;;;;6.90;4.50;;;;;;;23.39;78.16;101308.71;109793;1239;60075;-74
2023/08/11 17:21:36;;;;;;;7.30;5.00;;;;;;;23.27;78.95;101314.94;109781;1239;62243;-69
2023/08/11 17:24:05;;;;;;;7.10;5.20;;;;;;;23.19;79.35;101313.36;109795;1241;60251;-69
2023/08/11 17:26:34;;;;;;;6.10;4.30;;;;;;;23.04;80.13;101322.55;109959;1240;57173;-69
2023/08/11 17:29:03;;;;;;;9.70;4.40;;;;;;;22.98;80.30;101327.55;109716;1244;73310;-69
2023/08/11 17:31:32;;;;;;;7.80;4.20;;;;;;;22.92;79.60;101322.73;109956;1240;72382;-69
2023/08/11 17:34:01;;;;;;;5.20;4.00;;;;;;;22.79;81.76;101326.46;109769;1240;60104;-68
2023/08/11 17:36:30;;;;;;;6.20;4.40;;;;;;;22.66;82.92;101333.68;109711;1241;62452;-69
2023/08/11 17:38:59;;;;;;;6.70;4.30;;;;;;;22.67;81.42;101338.00;109751;1239;61063;-68
2023/08/11 17:41:28;;;;;;;5.60;4.00;;;;;;;22.61;81.81;101346.19;109779;1241;61442;-68
2023/08/11 17:43:56;;;;;;;6.60;4.30;;;;;;;22.52;82.71;101352.35;109738;1241;73181;-68
2023/08/11 17:46:25;;;;;;;5.50;4.30;;;;;;;22.46;82.20;101356.94;109943;1239;60987;-70